Time;durP1;ratioP1;P1;durP2;ratioP2;P2;SDS_P1;SDS_P2;PMS_P1;PMS_P2;Temp;Humidity;BMP_temperature;BMP_pressure;BME280_temperature;BME280_humidity;BME280_pressure;Samples;Min_cycle;Max_cycle;Signal;HPM_P1;HPM_P2
2021/03/13 00:01:51;;;;;;;11.68;5.05;;;;;;;;;;5117066;28;20194;-64
2021/03/13 00:04:17;;;;;;;10.68;4.55;;;;;;;;;;5117217;28;20286;-64
2021/03/13 00:06:45;;;;;;;5.38;4.43;;;;;;;;;;5116673;28;20200;-64
2021/03/13 00:09:12;;;;;;;8.13;5.20;;;;;;;;;;5116998;28;20664;-64
2021/03/13 00:11:38;;;;;;;8.13;4.50;;;;;;;;;;5116756;28;20696;-64
2021/03/13 00:14:05;;;;;;;9.15;4.85;;;;;;;;;;5116846;28;20316;-64
2021/03/13 00:16:32;;;;;;;12.20;4.63;;;;;;;;;;5116958;28;20259;-65
2021/03/13 00:18:59;;;;;;;5.30;4.00;;;;;;;;;;5117259;28;20602;-65
2021/03/13 00:21:25;;;;;;;7.18;4.75;;;;;;;;;;5116394;28;20201;-64
2021/03/13 00:23:55;;;;;;;7.75;4.43;;;;;;;;;;5116707;28;20194;-65
2021/03/13 00:26:21;;;;;;;13.15;5.38;;;;;;;;;;5116333;28;20194;-65
2021/03/13 00:28:48;;;;;;;8.75;4.78;;;;;;;;;;5116593;28;20199;-64
2021/03/13 00:31:15;;;;;;;7.57;4.20;;;;;;;;;;5116137;28;20247;-65
2021/03/13 00:33:43;;;;;;;5.95;4.55;;;;;;;;;;5116430;28;20193;-65
2021/03/13 00:36:10;;;;;;;5.72;4.63;;;;;;;;;;5116725;28;20201;-65
2021/03/13 00:38:36;;;;;;;9.35;5.30;;;;;;;;;;5115711;28;20229;-65
2021/03/13 00:41:04;;;;;;;12.88;5.47;;;;;;;;;;5116053;28;20703;-65
2021/03/13 00:43:31;;;;;;;5.70;4.50;;;;;;;;;;5117159;28;20245;-65
2021/03/13 00:45:57;;;;;;;7.95;5.38;;;;;;;;;;5116190;28;20280;-65
2021/03/13 00:48:24;;;;;;;6.80;4.63;;;;;;;;;;5115936;28;20284;-65
2021/03/13 00:50:51;;;;;;;6.68;4.75;;;;;;;;;;5116058;28;20304;-65
2021/03/13 00:53:18;;;;;;;8.85;4.75;;;;;;;;;;5115794;28;20194;-64
2021/03/13 00:55:45;;;;;;;8.27;4.53;;;;;;;;;;5116422;28;20228;-64
2021/03/13 00:58:12;;;;;;;9.43;4.45;;;;;;;;;;5116052;28;20302;-65
2021/03/13 01:00:39;;;;;;;9.93;5.38;;;;;;;;;;5116140;28;20289;-64
2021/03/13 01:03:07;;;;;;;6.32;4.03;;;;;;;;;;5115923;28;20226;-64
2021/03/13 01:05:34;;;;;;;9.38;4.03;;;;;;;;;;5115825;28;20229;-65
2021/03/13 01:08:01;;;;;;;4.45;3.85;;;;;;;;;;5115496;28;20229;-64
2021/03/13 01:10:31;;;;;;;6.03;4.32;;;;;;;;;;5115353;28;20226;-64
2021/03/13 01:12:58;;;;;;;7.03;4.28;;;;;;;;;;5115669;28;20275;-64
2021/03/13 01:15:26;;;;;;;5.93;3.65;;;;;;;;;;5115785;28;20182;-66
2021/03/13 01:17:53;;;;;;;6.07;3.95;;;;;;;;;;5115890;28;20284;-65
2021/03/13 01:20:21;;;;;;;6.50;4.00;;;;;;;;;;5116257;28;20196;-64
2021/03/13 01:22:48;;;;;;;8.18;3.35;;;;;;;;;;5115193;28;20280;-64
2021/03/13 01:25:15;;;;;;;6.82;3.95;;;;;;;;;;5115198;28;20193;-64
2021/03/13 01:27:42;;;;;;;8.95;3.55;;;;;;;;;;5115157;28;20288;-64
2021/03/13 01:30:10;;;;;;;8.55;3.92;;;;;;;;;;5115503;28;20703;-65
2021/03/13 01:32:38;;;;;;;7.18;4.43;;;;;;;;;;5114951;28;20213;-64
2021/03/13 01:35:05;;;;;;;7.97;4.20;;;;;;;;;;5115326;28;20280;-64
2021/03/13 01:37:32;;;;;;;7.10;4.85;;;;;;;;;;5115247;28;20226;-64
2021/03/13 01:39:58;;;;;;;7.70;4.97;;;;;;;;;;5115626;28;20615;-64
2021/03/13 01:42:25;;;;;;;9.48;4.55;;;;;;;;;;5114852;28;20331;-64
2021/03/13 01:44:52;;;;;;;10.82;4.15;;;;;;;;;;5115102;28;20230;-64
2021/03/13 01:47:21;;;;;;;18.13;5.45;;;;;;;;;;5115105;28;20282;-64
2021/03/13 01:49:49;;;;;;;11.52;4.10;;;;;;;;;;5115181;28;20542;-64
2021/03/13 01:52:16;;;;;;;9.45;4.80;;;;;;;;;;5114865;28;20252;-67
2021/03/13 01:54:43;;;;;;;16.33;4.82;;;;;;;;;;5115194;28;20281;-64
2021/03/13 01:57:10;;;;;;;7.72;3.63;;;;;;;;;;5114907;28;20225;-64
2021/03/13 01:59:37;;;;;;;8.65;5.45;;;;;;;;;;5115659;28;20203;-64
2021/03/13 02:02:06;;;;;;;7.95;3.95;;;;;;;;;;5114765;28;20233;-64
2021/03/13 02:04:33;;;;;;;7.85;3.65;;;;;;;;;;5114411;28;20204;-64
2021/03/13 02:07:02;;;;;;;10.38;3.65;;;;;;;;;;5114933;28;20288;-64
2021/03/13 02:09:31;;;;;;;11.85;4.82;;;;;;;;;;5114493;28;20292;-64
2021/03/13 02:12:06;;;;;;;12.82;4.80;;;;;;;;;;5114594;28;20214;-64
2021/03/13 02:14:36;;;;;;;12.30;4.05;;;;;;;;;;5114716;28;20355;-64
2021/03/13 02:17:07;;;;;;;13.30;6.05;;;;;;;;;;5114957;28;20314;-64
2021/03/13 02:19:51;;;;;;;18.73;7.10;;;;;;;;;;5114565;28;20225;-64
2021/03/13 02:22:19;;;;;;;6.82;4.05;;;;;;;;;;5114461;28;20194;-65
2021/03/13 02:25:07;;;;;;;10.85;4.18;;;;;;;;;;5114093;28;20288;-65
2021/03/13 02:27:40;;;;;;;5.38;4.25;;;;;;;;;;5108261;28;20279;-65
2021/03/13 02:30:12;;;;;;;6.72;4.35;;;;;;;;;;5114036;28;20196;-66
2021/03/13 02:32:41;;;;;;;7.40;4.28;;;;;;;;;;5114754;28;20210;-65
2021/03/13 02:35:10;;;;;;;7.43;4.35;;;;;;;;;;5115082;28;20284;-65
2021/03/13 02:37:40;;;;;;;5.78;3.95;;;;;;;;;;5113732;28;20199;-65
2021/03/13 02:40:10;;;;;;;5.15;3.95;;;;;;;;;;5114062;28;20282;-65
2021/03/13 02:42:40;;;;;;;8.57;4.80;;;;;;;;;;5114422;28;20203;-65
2021/03/13 02:45:07;;;;;;;8.05;5.63;;;;;;;;;;5114668;28;20284;-65
2021/03/13 02:47:35;;;;;;;12.30;5.47;;;;;;;;;;5114363;28;20619;-65
2021/03/13 02:50:02;;;;;;;6.80;4.88;;;;;;;;;;5114051;28;20281;-65
2021/03/13 02:52:30;;;;;;;7.47;6.15;;;;;;;;;;5113988;28;20256;-65
2021/03/13 02:54:58;;;;;;;6.75;5.78;;;;;;;;;;5113972;28;20224;-65
2021/03/13 02:57:25;;;;;;;10.93;6.90;;;;;;;;;;5114109;28;20624;-65
2021/03/13 02:59:53;;;;;;;7.93;6.47;;;;;;;;;;5114195;28;20303;-65
2021/03/13 03:02:20;;;;;;;10.90;5.80;;;;;;;;;;5118281;28;20251;-65
2021/03/13 03:04:49;;;;;;;5.75;5.25;;;;;;;;;;5118229;28;20194;-65
2021/03/13 03:07:17;;;;;;;14.48;6.57;;;;;;;;;;5118133;28;20278;-65
2021/03/13 03:09:44;;;;;;;7.68;4.75;;;;;;;;;;5118267;28;20611;-65
2021/03/13 03:12:11;;;;;;;5.95;5.15;;;;;;;;;;5117658;28;20213;-65
2021/03/13 03:14:40;;;;;;;6.50;3.78;;;;;;;;;;5118394;28;20293;-65
2021/03/13 03:17:07;;;;;;;6.50;4.22;;;;;;;;;;5117887;28;20589;-65
2021/03/13 03:19:35;;;;;;;6.53;3.88;;;;;;;;;;5117839;28;20285;-65
2021/03/13 03:22:03;;;;;;;5.05;4.03;;;;;;;;;;5117534;28;20287;-65
2021/03/13 03:24:30;;;;;;;5.57;4.03;;;;;;;;;;5118282;28;20197;-65
2021/03/13 03:26:57;;;;;;;8.90;5.45;;;;;;;;;;5118146;28;20615;-65
2021/03/13 03:29:24;;;;;;;6.18;5.57;;;;;;;;;;5117741;28;20574;-65
2021/03/13 03:31:51;;;;;;;7.85;5.10;;;;;;;;;;5117299;28;20305;-65
2021/03/13 03:34:18;;;;;;;5.72;5.20;;;;;;;;;;5117604;28;20278;-65
2021/03/13 03:36:45;;;;;;;8.52;5.63;;;;;;;;;;5117281;28;20205;-65
2021/03/13 03:39:12;;;;;;;6.50;5.70;;;;;;;;;;5117236;28;20279;-64
2021/03/13 03:41:42;;;;;;;7.13;6.07;;;;;;;;;;5117474;28;20595;-65
2021/03/13 03:44:10;;;;;;;8.38;6.00;;;;;;;;;;5117192;28;20282;-65
2021/03/13 03:46:37;;;;;;;6.07;5.47;;;;;;;;;;5117463;28;20260;-65
2021/03/13 03:49:05;;;;;;;14.40;6.90;;;;;;;;;;5117798;28;20258;-65
2021/03/13 03:51:32;;;;;;;6.70;6.03;;;;;;;;;;5117522;28;20299;-65
2021/03/13 03:54:00;;;;;;;9.52;6.25;;;;;;;;;;5117284;28;20547;-65
2021/03/13 03:56:28;;;;;;;8.50;6.38;;;;;;;;;;5116874;28;20233;-65
2021/03/13 03:58:55;;;;;;;6.90;5.95;;;;;;;;;;5117769;28;20280;-65
2021/03/13 04:01:23;;;;;;;7.63;6.10;;;;;;;;;;5117883;28;20286;-65
2021/03/13 04:03:51;;;;;;;8.38;6.00;;;;;;;;;;5117111;28;20606;-65
2021/03/13 04:06:19;;;;;;;6.65;5.95;;;;;;;;;;5117428;28;20584;-65
2021/03/13 04:08:47;;;;;;;10.10;5.60;;;;;;;;;;5117022;28;20200;-65
2021/03/13 04:11:14;;;;;;;5.68;5.18;;;;;;;;;;5116841;28;20255;-65
2021/03/13 04:13:43;;;;;;;7.25;5.50;;;;;;;;;;5115714;28;20267;-65
2021/03/13 04:16:11;;;;;;;8.57;5.70;;;;;;;;;;5116846;28;20282;-66
2021/03/13 04:18:38;;;;;;;7.53;5.70;;;;;;;;;;5117475;28;20193;-65
2021/03/13 04:21:05;;;;;;;7.25;5.55;;;;;;;;;;5116757;28;20204;-65
2021/03/13 04:23:33;;;;;;;7.40;5.80;;;;;;;;;;5116764;28;20246;-65
2021/03/13 04:25:59;;;;;;;6.78;6.07;;;;;;;;;;5116352;28;20669;-65
2021/03/13 04:28:26;;;;;;;6.03;5.25;;;;;;;;;;5116316;28;20236;-65
2021/03/13 04:30:54;;;;;;;6.20;4.35;;;;;;;;;;5116193;28;20721;-65
2021/03/13 04:33:21;;;;;;;5.65;4.90;;;;;;;;;;5116602;28;20218;-65
2021/03/13 04:35:50;;;;;;;4.75;4.35;;;;;;;;;;5116494;28;20236;-65
2021/03/13 04:38:17;;;;;;;6.07;5.50;;;;;;;;;;5116403;28;20280;-65
2021/03/13 04:40:45;;;;;;;6.07;5.00;;;;;;;;;;5116041;28;20244;-65
2021/03/13 04:43:13;;;;;;;5.93;5.43;;;;;;;;;;5116318;28;20194;-65
2021/03/13 04:45:40;;;;;;;5.90;5.35;;;;;;;;;;5116285;28;20289;-65
2021/03/13 04:48:08;;;;;;;5.68;4.43;;;;;;;;;;5116090;28;20193;-65
2021/03/13 04:50:36;;;;;;;5.85;5.35;;;;;;;;;;5116174;28;20280;-65
2021/03/13 04:53:03;;;;;;;10.77;5.40;;;;;;;;;;5117029;28;20670;-64
2021/03/13 04:55:29;;;;;;;6.63;5.95;;;;;;;;;;5116535;28;20197;-65
2021/03/13 04:57:56;;;;;;;8.82;5.90;;;;;;;;;;5116075;28;20226;-64
2021/03/13 05:00:23;;;;;;;5.72;4.95;;;;;;;;;;5116454;28;20228;-65
2021/03/13 05:02:50;;;;;;;6.60;5.53;;;;;;;;;;5115651;28;20358;-65
2021/03/13 05:05:18;;;;;;;7.20;5.03;;;;;;;;;;5115940;28;20292;-65
2021/03/13 05:07:45;;;;;;;5.22;4.72;;;;;;;;;;5115547;28;20753;-65
2021/03/13 05:10:12;;;;;;;5.25;4.82;;;;;;;;;;5115504;28;20280;-65
2021/03/13 05:12:39;;;;;;;7.45;5.35;;;;;;;;;;5115933;28;20704;-66
2021/03/13 05:15:07;;;;;;;5.95;4.80;;;;;;;;;;5115752;28;20201;-64
2021/03/13 05:17:33;;;;;;;4.93;4.10;;;;;;;;;;5115711;28;20243;-66
2021/03/13 05:20:00;;;;;;;6.25;4.50;;;;;;;;;;5115330;28;20235;-66
2021/03/13 05:22:28;;;;;;;4.78;4.28;;;;;;;;;;5115598;28;20193;-65
2021/03/13 05:24:54;;;;;;;4.38;4.07;;;;;;;;;;5114146;28;20330;-66
2021/03/13 05:27:21;;;;;;;4.47;4.07;;;;;;;;;;5115730;28;20277;-66
2021/03/13 05:29:48;;;;;;;6.45;4.55;;;;;;;;;;5115069;28;20230;-66
2021/03/13 05:32:16;;;;;;;3.58;3.28;;;;;;;;;;5114999;28;20249;-66
2021/03/13 05:34:43;;;;;;;4.00;3.60;;;;;;;;;;5127951;27;20684;-65
2021/03/13 05:37:09;;;;;;;4.80;3.95;;;;;;;;;;5134443;27;20284;-65
2021/03/13 05:39:37;;;;;;;4.03;3.33;;;;;;;;;;5135438;27;20313;-66
2021/03/13 05:42:04;;;;;;;2.85;2.65;;;;;;;;;;5135106;27;20305;-65
2021/03/13 05:44:31;;;;;;;3.72;3.35;;;;;;;;;;5134938;27;20190;-64
2021/03/13 05:46:58;;;;;;;7.35;4.47;;;;;;;;;;5134510;27;20193;-65
2021/03/13 05:49:26;;;;;;;4.65;2.80;;;;;;;;;;5135238;27;20254;-65
2021/03/13 05:51:54;;;;;;;2.85;2.65;;;;;;;;;;5135210;27;20304;-65
2021/03/13 05:54:21;;;;;;;3.55;2.78;;;;;;;;;;5134415;27;20280;-65
2021/03/13 05:56:48;;;;;;;4.32;2.40;;;;;;;;;;5134156;27;20231;-65
2021/03/13 05:59:15;;;;;;;2.50;2.30;;;;;;;;;;5134173;27;20228;-65
2021/03/13 06:01:42;;;;;;;4.05;2.97;;;;;;;;;;5134481;27;20212;-64
2021/03/13 06:04:09;;;;;;;3.28;3.08;;;;;;;;;;5132011;27;20730;-64
2021/03/13 06:06:37;;;;;;;3.20;2.60;;;;;;;;;;5134655;27;20280;-65
2021/03/13 06:09:05;;;;;;;2.95;2.50;;;;;;;;;;5135103;27;20224;-66
2021/03/13 06:11:31;;;;;;;4.35;3.20;;;;;;;;;;5134695;27;20351;-66
2021/03/13 06:13:59;;;;;;;4.28;2.50;;;;;;;;;;5134928;27;20307;-65
2021/03/13 06:16:27;;;;;;;7.32;2.80;;;;;;;;;;5135283;27;20194;-65
2021/03/13 06:18:56;;;;;;;3.67;2.28;;;;;;;;;;5135222;27;20194;-65
2021/03/13 06:21:23;;;;;;;2.92;2.47;;;;;;;;;;5135056;27;20207;-65
2021/03/13 06:23:54;;;;;;;12.65;7.32;;;;;;;;;;5134453;27;20203;-65
2021/03/13 06:26:21;;;;;;;2.50;2.28;;;;;;;;;;5134495;27;20181;-65
2021/03/13 06:28:47;;;;;;;3.45;2.30;;;;;;;;;;5133789;27;20451;-64
2021/03/13 06:31:15;;;;;;;3.03;2.28;;;;;;;;;;5133618;27;20208;-64
2021/03/13 06:33:43;;;;;;;2.08;1.98;;;;;;;;;;5133862;27;20191;-64
2021/03/13 06:36:10;;;;;;;2.40;2.20;;;;;;;;;;5132449;27;20192;-64
2021/03/13 06:38:37;;;;;;;2.22;2.13;;;;;;;;;;5133360;27;20280;-64
2021/03/13 06:41:15;;;;;;;2.47;1.80;;;;;;;;;;5134518;27;20294;-66
2021/03/13 06:43:42;;;;;;;2.65;1.90;;;;;;;;;;5133567;27;20776;-65
2021/03/13 06:46:09;;;;;;;2.20;2.00;;;;;;;;;;5133718;27;20293;-65
2021/03/13 06:48:38;;;;;;;2.28;2.10;;;;;;;;;;5133495;27;20199;-66
2021/03/13 06:51:21;;;;;;;2.20;2.00;;;;;;;;;;5134449;27;20232;-67
2021/03/13 06:53:59;;;;;;;1.40;1.30;;;;;;;;;;5133498;27;20227;-66
2021/03/13 06:56:26;;;;;;;2.03;1.92;;;;;;;;;;5134061;28;20272;-66
2021/03/13 06:58:53;;;;;;;3.40;1.90;;;;;;;;;;5133816;28;20228;-65
2021/03/13 07:01:26;;;;;;;2.70;2.10;;;;;;;;;;5133194;28;20203;-66
2021/03/13 07:03:53;;;;;;;3.75;1.80;;;;;;;;;;5134331;28;20576;-65
2021/03/13 07:06:20;;;;;;;1.90;1.80;;;;;;;;;;5133163;28;20220;-66
2021/03/13 07:08:48;;;;;;;3.67;2.13;;;;;;;;;;5131945;28;20279;-65
2021/03/13 07:11:16;;;;;;;3.30;1.92;;;;;;;;;;5134114;28;20221;-67
2021/03/13 07:13:43;;;;;;;1.85;1.63;;;;;;;;;;5133449;28;20222;-66
2021/03/13 07:16:30;;;;;;;2.40;1.60;;;;;;;;;;5134092;28;20197;-65
2021/03/13 07:18:58;;;;;;;1.88;1.77;;;;;;;;;;5134137;28;20235;-65
2021/03/13 07:21:25;;;;;;;4.07;2.05;;;;;;;;;;5134170;28;20291;-65
2021/03/13 07:23:56;;;;;;;3.88;2.10;;;;;;;;;;5134113;28;20231;-65
2021/03/13 07:26:28;;;;;;;1.60;1.50;;;;;;;;;;5133970;28;20229;-66
2021/03/13 07:28:58;;;;;;;1.70;1.60;;;;;;;;;;5134739;28;20189;-66
2021/03/13 07:31:26;;;;;;;2.30;1.80;;;;;;;;;;5134067;28;20216;-66
2021/03/13 07:33:54;;;;;;;2.08;1.90;;;;;;;;;;5133355;28;20780;-65
2021/03/13 07:36:22;;;;;;;2.60;2.05;;;;;;;;;;5133681;28;20746;-66
2021/03/13 07:38:50;;;;;;;1.88;1.67;;;;;;;;;;5132290;28;20347;-66
2021/03/13 07:41:18;;;;;;;1.80;1.70;;;;;;;;;;5133621;28;20233;-68
2021/03/13 07:43:45;;;;;;;3.38;1.80;;;;;;;;;;5133834;28;20195;-68
2021/03/13 07:46:12;;;;;;;2.95;2.35;;;;;;;;;;5133655;27;20229;-67
2021/03/13 07:48:39;;;;;;;2.83;1.90;;;;;;;;;;5137575;27;20284;-66
2021/03/13 07:51:07;;;;;;;3.40;2.65;;;;;;;;;;5137172;27;20725;-65
2021/03/13 07:53:36;;;;;;;2.28;2.15;;;;;;;;;;5137813;27;20717;-68
2021/03/13 07:56:04;;;;;;;2.25;2.05;;;;;;;;;;5137606;27;20280;-67
2021/03/13 07:58:31;;;;;;;2.45;1.85;;;;;;;;;;5136939;27;20281;-68
2021/03/13 08:00:59;;;;;;;1.60;1.50;;;;;;;;;;5137795;27;20583;-66
2021/03/13 08:03:40;;;;;;;1.55;1.45;;;;;;;;;;5137302;27;20197;-66
2021/03/13 08:06:07;;;;;;;7.10;1.98;;;;;;;;;;5136912;27;20193;-67
2021/03/13 08:08:35;;;;;;;1.60;1.50;;;;;;;;;;5136522;27;20201;-68
2021/03/13 08:11:03;;;;;;;2.95;1.70;;;;;;;;;;5137260;27;20291;-67
2021/03/13 08:13:48;;;;;;;2.30;2.10;;;;;;;;;;5137648;27;20641;-67
2021/03/13 08:16:18;;;;;;;1.48;1.38;;;;;;;;;;5137231;27;20202;-69
2021/03/13 08:18:46;;;;;;;1.75;1.60;;;;;;;;;;5137636;27;20192;-67
2021/03/13 08:21:30;;;;;;;2.40;1.52;;;;;;;;;;5137124;27;20680;-66
2021/03/13 08:23:59;;;;;;;2.00;1.83;;;;;;;;;;5136127;27;20201;-66
2021/03/13 08:26:47;;;;;;;1.80;1.30;;;;;;;;;;5136962;27;20377;-69
2021/03/13 08:29:13;;;;;;;1.17;1.08;;;;;;;;;;5137054;27;20224;-68
2021/03/13 08:31:41;;;;;;;4.25;1.30;;;;;;;;;;5137108;27;20224;-69
2021/03/13 08:34:34;;;;;;;1.30;1.20;;;;;;;;;;5136742;27;20193;-69
2021/03/13 08:37:14;;;;;;;1.92;1.40;;;;;;;;;;5088825;27;20236;-69
2021/03/13 08:39:42;;;;;;;1.10;1.10;;;;;;;;;;5136054;27;20199;-68
2021/03/13 08:42:09;;;;;;;4.53;1.75;;;;;;;;;;5135050;27;20284;-66
2021/03/13 08:44:36;;;;;;;4.95;1.85;;;;;;;;;;5136412;27;20284;-65
2021/03/13 08:47:03;;;;;;;1.40;1.30;;;;;;;;;;5136550;27;20269;-67
2021/03/13 08:49:38;;;;;;;1.20;1.10;;;;;;;;;;5136309;27;20200;-67
2021/03/13 08:52:21;;;;;;;5.13;1.73;;;;;;;;;;5136053;27;20672;-67
2021/03/13 08:54:50;;;;;;;2.22;2.03;;;;;;;;;;5136535;27;20660;-68
2021/03/13 08:57:17;;;;;;;2.20;1.38;;;;;;;;;;5136582;27;20251;-66
2021/03/13 08:59:45;;;;;;;6.45;1.88;;;;;;;;;;5135992;27;20650;-69
2021/03/13 09:02:14;;;;;;;5.07;1.67;;;;;;;;;;5135818;27;20666;-69
2021/03/13 09:04:41;;;;;;;1.83;1.52;;;;;;;;;;5136208;27;20189;-69
2021/03/13 09:07:08;;;;;;;2.28;1.60;;;;;;;;;;5135904;27;20197;-69
2021/03/13 09:09:36;;;;;;;2.13;1.60;;;;;;;;;;5136347;27;20669;-67
2021/03/13 09:12:06;;;;;;;3.45;1.63;;;;;;;;;;5134565;27;20301;-68
2021/03/13 09:14:34;;;;;;;4.28;1.70;;;;;;;;;;5135265;27;20271;-67
2021/03/13 09:17:08;;;;;;;2.33;1.40;;;;;;;;;;5135821;27;20197;-67
2021/03/13 09:19:34;;;;;;;1.67;1.35;;;;;;;;;;5136739;27;20539;-68
2021/03/13 09:22:01;;;;;;;5.20;1.38;;;;;;;;;;5135719;27;20292;-66
2021/03/13 09:24:29;;;;;;;3.65;2.30;;;;;;;;;;5136071;27;20231;-67
2021/03/13 09:26:56;;;;;;;3.97;1.80;;;;;;;;;;5135374;27;20241;-67
2021/03/13 09:29:30;;;;;;;4.45;1.80;;;;;;;;;;5135944;27;20197;-67
2021/03/13 09:31:57;;;;;;;6.03;2.15;;;;;;;;;;5135560;27;20241;-66
2021/03/13 09:34:24;;;;;;;4.30;2.00;;;;;;;;;;5135962;27;20249;-66
2021/03/13 09:36:51;;;;;;;10.95;2.53;;;;;;;;;;5135532;27;20281;-67
2021/03/13 09:39:23;;;;;;;5.10;2.15;;;;;;;;;;5135273;27;20197;-68
2021/03/13 09:42:09;;;;;;;4.18;2.30;;;;;;;;;;5133226;27;20655;-66
2021/03/13 09:44:38;;;;;;;3.80;1.88;;;;;;;;;;5135484;27;20185;-67
2021/03/13 09:47:28;;;;;;;5.93;1.95;;;;;;;;;;5135644;27;20247;-67
2021/03/13 09:49:56;;;;;;;6.30;2.15;;;;;;;;;;5110150;27;20193;-67
2021/03/13 09:52:26;;;;;;;6.47;2.10;;;;;;;;;;5135471;27;20263;-67
2021/03/13 09:55:00;;;;;;;7.38;2.38;;;;;;;;;;5135673;27;20229;-66
2021/03/13 09:57:27;;;;;;;3.55;2.53;;;;;;;;;;5135270;27;20281;-66
2021/03/13 09:59:55;;;;;;;10.40;2.50;;;;;;;;;;5135061;27;20196;-67
2021/03/13 10:02:22;;;;;;;11.25;2.90;;;;;;;;;;5135290;27;20243;-66
2021/03/13 10:04:50;;;;;;;5.03;2.15;;;;;;;;;;5135119;27;20646;-66
2021/03/13 10:07:18;;;;;;;6.35;2.10;;;;;;;;;;5135381;27;20334;-66
2021/03/13 10:09:50;;;;;;;5.32;2.55;;;;;;;;;;5134558;27;20198;-66
2021/03/13 10:12:23;;;;;;;5.55;2.10;;;;;;;;;;5132908;27;20305;-66
2021/03/13 10:14:50;;;;;;;4.40;2.67;;;;;;;;;;5135463;27;20316;-65
2021/03/13 10:17:18;;;;;;;5.05;1.80;;;;;;;;;;5134585;27;20336;-69
2021/03/13 10:19:45;;;;;;;3.70;1.70;;;;;;;;;;5134810;27;20291;-67
2021/03/13 10:22:13;;;;;;;5.82;3.50;;;;;;;;;;5134881;27;20202;-65
2021/03/13 10:24:44;;;;;;;4.13;1.85;;;;;;;;;;5135171;27;20231;-67
2021/03/13 10:27:11;;;;;;;6.00;2.75;;;;;;;;;;5134649;27;20238;-66
2021/03/13 10:29:37;;;;;;;13.38;1.77;;;;;;;;;;5134182;27;20275;-66
2021/03/13 10:32:04;;;;;;;5.35;2.10;;;;;;;;;;5134272;27;20223;-68
2021/03/13 10:34:36;;;;;;;3.75;1.80;;;;;;;;;;5134402;27;20247;-69
2021/03/13 10:37:02;;;;;;;2.38;1.80;;;;;;;;;;5134672;27;20268;-68
2021/03/13 10:39:29;;;;;;;3.20;1.85;;;;;;;;;;5134642;27;20231;-67
2021/03/13 10:41:59;;;;;;;2.70;1.75;;;;;;;;;;5132004;27;20535;-68
2021/03/13 10:44:26;;;;;;;4.35;1.83;;;;;;;;;;5134454;27;20188;-67
2021/03/13 10:46:52;;;;;;;2.80;1.55;;;;;;;;;;5134467;27;20246;-67
2021/03/13 10:49:26;;;;;;;3.17;1.90;;;;;;;;;;5134570;27;20285;-68
2021/03/13 10:51:54;;;;;;;4.65;1.48;;;;;;;;;;5134653;27;20642;-67
2021/03/13 10:54:23;;;;;;;2.70;2.15;;;;;;;;;;5134509;27;20242;-68
2021/03/13 10:56:50;;;;;;;3.63;2.25;;;;;;;;;;5134896;27;20194;-65
2021/03/13 10:59:17;;;;;;;1.92;1.73;;;;;;;;;;5134467;28;20230;-67
2021/03/13 11:01:44;;;;;;;2.28;1.75;;;;;;;;;;5134497;28;20278;-67
2021/03/13 11:04:11;;;;;;;4.80;2.00;;;;;;;;;;5133436;28;20231;-66
2021/03/13 11:06:38;;;;;;;2.05;1.73;;;;;;;;;;5134430;28;20195;-67
2021/03/13 11:09:06;;;;;;;3.45;2.13;;;;;;;;;;5134174;28;20591;-69
2021/03/13 11:11:34;;;;;;;3.72;2.08;;;;;;;;;;5134260;28;20300;-67
2021/03/13 11:14:00;;;;;;;3.85;2.00;;;;;;;;;;5132508;28;20229;-69
2021/03/13 11:16:27;;;;;;;2.17;1.95;;;;;;;;;;5133434;28;20661;-69
2021/03/13 11:18:55;;;;;;;3.00;1.92;;;;;;;;;;5133707;28;20660;-70
2021/03/13 11:21:22;;;;;;;6.18;2.10;;;;;;;;;;5133901;27;20722;-67
2021/03/13 11:23:49;;;;;;;2.63;1.60;;;;;;;;;;5137971;27;20245;-70
2021/03/13 11:26:17;;;;;;;3.45;1.60;;;;;;;;;;5138771;27;20192;-69
2021/03/13 11:28:44;;;;;;;2.53;1.60;;;;;;;;;;5137413;27;20669;-68
2021/03/13 11:31:11;;;;;;;1.83;1.50;;;;;;;;;;5138525;27;20225;-70
2021/03/13 11:33:38;;;;;;;6.25;2.55;;;;;;;;;;5137772;27;20213;-68
2021/03/13 11:36:05;;;;;;;9.90;2.60;;;;;;;;;;5138158;27;20662;-69
2021/03/13 11:38:32;;;;;;;2.30;1.95;;;;;;;;;;5137774;27;20709;-70
2021/03/13 11:41:02;;;;;;;5.80;2.17;;;;;;;;;;5137413;27;20783;-71
2021/03/13 11:43:32;;;;;;;6.65;2.80;;;;;;;;;;5134670;27;20547;-69
2021/03/13 11:45:59;;;;;;;6.18;2.95;;;;;;;;;;5137508;27;20234;-68
2021/03/13 11:48:25;;;;;;;8.27;4.13;;;;;;;;;;5137860;27;20271;-68
2021/03/13 11:50:52;;;;;;;5.68;2.65;;;;;;;;;;5137360;27;20229;-69
2021/03/13 11:53:19;;;;;;;4.07;2.08;;;;;;;;;;5137081;27;20309;-68
2021/03/13 11:55:46;;;;;;;8.82;2.78;;;;;;;;;;5137696;27;20242;-68
2021/03/13 11:58:13;;;;;;;5.35;2.35;;;;;;;;;;5137323;27;20210;-69
2021/03/13 12:00:40;;;;;;;5.80;2.03;;;;;;;;;;5137513;27;20302;-69
2021/03/13 12:03:07;;;;;;;7.78;2.83;;;;;;;;;;5137602;27;20254;-69
2021/03/13 12:05:34;;;;;;;9.48;2.60;;;;;;;;;;5137275;27;20190;-69
2021/03/13 12:08:01;;;;;;;9.20;2.30;;;;;;;;;;5137358;27;20233;-68
2021/03/13 12:10:27;;;;;;;7.68;3.15;;;;;;;;;;5137160;27;20193;-68
2021/03/13 12:12:54;;;;;;;6.95;2.33;;;;;;;;;;5136961;27;20357;-69
2021/03/13 12:15:22;;;;;;;10.25;3.38;;;;;;;;;;5136281;27;20214;-68
2021/03/13 12:17:50;;;;;;;7.75;3.00;;;;;;;;;;5137198;27;20285;-70
2021/03/13 12:20:18;;;;;;;7.35;2.72;;;;;;;;;;5137038;27;20240;-68
2021/03/13 12:22:44;;;;;;;9.68;2.55;;;;;;;;;;5137262;27;20259;-68
2021/03/13 12:25:11;;;;;;;7.57;2.40;;;;;;;;;;5136910;27;20234;-69
2021/03/13 12:27:39;;;;;;;10.20;3.35;;;;;;;;;;5136886;27;20286;-69
2021/03/13 12:30:07;;;;;;;4.30;2.20;;;;;;;;;;5136252;27;20254;-69
2021/03/13 12:32:33;;;;;;;4.35;2.55;;;;;;;;;;5136548;27;20225;-67
2021/03/13 12:35:02;;;;;;;3.35;1.90;;;;;;;;;;5136944;27;20255;-68
2021/03/13 12:37:29;;;;;;;4.72;1.65;;;;;;;;;;5136923;27;20556;-68
2021/03/13 12:39:56;;;;;;;10.15;2.50;;;;;;;;;;5136532;27;20204;-67
2021/03/13 12:42:23;;;;;;;3.65;1.75;;;;;;;;;;5136783;27;20590;-69
2021/03/13 12:44:50;;;;;;;7.97;2.65;;;;;;;;;;5134235;27;20199;-67
2021/03/13 12:47:17;;;;;;;4.18;2.00;;;;;;;;;;5136502;27;20225;-68
2021/03/13 12:49:43;;;;;;;10.10;2.28;;;;;;;;;;5136251;27;20201;-68
2021/03/13 12:52:11;;;;;;;10.55;2.20;;;;;;;;;;5136800;27;20308;-67
2021/03/13 12:54:38;;;;;;;7.32;2.17;;;;;;;;;;5136421;27;20227;-70
2021/03/13 12:57:05;;;;;;;4.13;2.13;;;;;;;;;;5136338;27;20194;-68
2021/03/13 12:59:32;;;;;;;5.32;2.22;;;;;;;;;;5136516;27;20659;-67
2021/03/13 13:01:58;;;;;;;4.30;1.92;;;;;;;;;;5136256;27;20292;-68
2021/03/13 13:04:25;;;;;;;1.98;1.38;;;;;;;;;;5136026;27;20228;-67
2021/03/13 13:06:52;;;;;;;2.17;1.98;;;;;;;;;;5135811;27;20279;-68
2021/03/13 13:09:20;;;;;;;7.70;2.65;;;;;;;;;;5136223;27;20235;-67
2021/03/13 13:11:46;;;;;;;3.60;2.92;;;;;;;;;;5136185;27;20562;-70
2021/03/13 13:14:13;;;;;;;2.08;1.80;;;;;;;;;;5136176;27;20776;-70
2021/03/13 13:16:40;;;;;;;6.57;1.73;;;;;;;;;;5134303;27;20669;-68
2021/03/13 13:19:07;;;;;;;7.68;2.40;;;;;;;;;;5135552;27;20231;-66
2021/03/13 13:21:33;;;;;;;7.97;2.40;;;;;;;;;;5135975;27;20228;-67
2021/03/13 13:24:00;;;;;;;9.23;3.15;;;;;;;;;;5136062;27;20283;-68
2021/03/13 13:26:28;;;;;;;3.47;2.05;;;;;;;;;;5135644;27;20227;-67
2021/03/13 13:28:54;;;;;;;5.45;2.15;;;;;;;;;;5136676;27;20229;-68
2021/03/13 13:31:21;;;;;;;6.72;3.78;;;;;;;;;;5135053;27;20197;-68
2021/03/13 13:33:48;;;;;;;7.00;2.70;;;;;;;;;;5135620;27;20559;-67
2021/03/13 13:36:17;;;;;;;6.47;2.53;;;;;;;;;;5135867;27;20248;-67
2021/03/13 13:38:44;;;;;;;5.55;2.67;;;;;;;;;;5135758;27;20265;-68
2021/03/13 13:41:10;;;;;;;6.97;3.25;;;;;;;;;;5135246;27;20200;-69
2021/03/13 13:43:38;;;;;;;2.78;2.05;;;;;;;;;;5135787;27;20664;-68
2021/03/13 13:46:05;;;;;;;3.05;2.50;;;;;;;;;;5132034;27;20242;-67
2021/03/13 13:48:31;;;;;;;11.25;2.45;;;;;;;;;;5134663;27;20193;-71
2021/03/13 13:50:58;;;;;;;3.42;2.50;;;;;;;;;;5134328;27;20226;-69
2021/03/13 13:53:25;;;;;;;8.77;2.38;;;;;;;;;;5135079;27;20211;-70
2021/03/13 13:55:52;;;;;;;6.43;2.25;;;;;;;;;;5133761;27;20283;-68
2021/03/13 13:58:19;;;;;;;2.63;1.85;;;;;;;;;;5134796;27;20286;-69
2021/03/13 14:00:46;;;;;;;8.35;2.47;;;;;;;;;;5134836;27;20189;-67
2021/03/13 14:03:13;;;;;;;3.88;1.80;;;;;;;;;;5134959;27;20204;-66
2021/03/13 14:05:40;;;;;;;5.28;2.50;;;;;;;;;;5134928;27;20193;-67
2021/03/13 14:08:07;;;;;;;6.47;2.30;;;;;;;;;;5134846;27;20283;-67
2021/03/13 14:10:34;;;;;;;7.82;2.60;;;;;;;;;;5134625;27;20632;-67
2021/03/13 14:13:00;;;;;;;8.05;3.35;;;;;;;;;;5134719;27;20237;-69
2021/03/13 14:15:29;;;;;;;7.57;2.47;;;;;;;;;;5135432;27;20273;-68
2021/03/13 14:17:56;;;;;;;5.18;2.03;;;;;;;;;;5132777;27;20276;-68
2021/03/13 14:20:23;;;;;;;5.80;2.60;;;;;;;;;;5134342;27;20280;-67
2021/03/13 14:22:50;;;;;;;6.28;2.03;;;;;;;;;;5134829;27;20278;-69
2021/03/13 14:25:18;;;;;;;3.45;2.20;;;;;;;;;;5134511;27;20230;-69
2021/03/13 14:27:44;;;;;;;5.63;2.60;;;;;;;;;;5135037;27;20231;-68
2021/03/13 14:30:13;;;;;;;2.03;1.90;;;;;;;;;;5134547;27;20285;-68
2021/03/13 14:32:39;;;;;;;8.38;2.13;;;;;;;;;;5134259;27;20251;-68
2021/03/13 14:35:09;;;;;;;2.10;1.60;;;;;;;;;;5134764;27;20205;-69
2021/03/13 14:37:36;;;;;;;3.70;2.30;;;;;;;;;;5134223;27;20279;-70
2021/03/13 14:40:02;;;;;;;11.18;2.80;;;;;;;;;;5134677;27;20287;-68
2021/03/13 14:42:29;;;;;;;2.88;1.77;;;;;;;;;;5134185;27;20289;-68
2021/03/13 14:44:56;;;;;;;6.55;4.05;;;;;;;;;;5133987;27;20282;-68
2021/03/13 14:47:23;;;;;;;8.40;3.03;;;;;;;;;;5131840;27;20651;-66